Hayakitamaru — JD2413 — position and weather

sailwx.info

Track history (hours):
 
Tides and Currents Weather Stations Pressure Air Temp Water Temp Dewpoint Dewpoint Depression Visibility Wind Speed Wind Dir Waves Ship Positions

Hayakitamaru

Last reported at 2018-Feb-24 09:47 UTC. Time now 2018-Feb-24 10:06 UTC.
Position N 34°56' E 140°03'.

Length 74 m; draft 3.8 m.

Type: Cargo ship. MMSI: 431800289.

Date/timePositionNaut miles runAvg speedWind from/ knotsBaromVisibWave heightAir tempDewpointWater temp
2018-Feb-24 09:47N 34°56' E 140°03'1010.7
2018-Feb-24 08:49N 34°53' E 139°51'10 8.6
2018-Feb-24 07:39N 35°01' E 139°44'2 9.3
2018-Feb-24 07:29N 35°03' E 139°45'5 9.6
2018-Feb-24 06:59N 35°08' E 139°45'510.0
2018-Feb-24 06:30N 35°12' E 139°46'510.5
2018-Feb-24 06:00N 35°18' E 139°45'510.3
2018-Feb-24 05:30N 35°22' E 139°42'5 9.6
2018-Feb-24 05:00N 35°27' E 139°43'3 5.8
2018-Feb-24 04:30N 35°30' E 139°43'0 0.7
2018-Feb-24 04:00N 35°30' E 139°43'0 0.0
2018-Feb-24 03:30N 35°30' E 139°43'0 0.0
2018-Feb-24 03:00N 35°30' E 139°43'0 0.0
2018-Feb-24 02:30N 35°30' E 139°43'0 0.0
2018-Feb-24 02:00N 35°30' E 139°43'0 0.0
2018-Feb-24 01:30N 35°30' E 139°43'0 0.0
2018-Feb-24 01:00N 35°30' E 139°43'0 0.0
2018-Feb-24 00:30N 35°30' E 139°43'0 0.0
2018-Feb-24 00:00N 35°30' E 139°43'0 0.0
2018-Feb-23 23:30N 35°30' E 139°43'0 0.0
2018-Feb-23 23:00N 35°30' E 139°43'0 0.0
2018-Feb-23 22:30N 35°30' E 139°43'0 0.0
2018-Feb-23 22:00N 35°30' E 139°43'0 0.0
2018-Feb-23 21:30N 35°30' E 139°43'0 0.0
2018-Feb-23 21:00N 35°30' E 139°43'0 0.0
2018-Feb-23 20:30N 35°30' E 139°43'0 0.0
2018-Feb-23 20:00N 35°30' E 139°43'0 0.0
2018-Feb-23 19:30N 35°30' E 139°43'0 0.0
2018-Feb-23 19:00N 35°30' E 139°43'0 0.0
2018-Feb-23 18:30N 35°30' E 139°43'0 0.0
2018-Feb-23 18:00N 35°30' E 139°43'0 0.0
2018-Feb-23 17:30N 35°30' E 139°43'0 0.0
2018-Feb-23 17:00N 35°30' E 139°43'0 0.0
2018-Feb-23 16:30N 35°30' E 139°43'0 0.0
2018-Feb-23 16:00N 35°30' E 139°43'0 0.0
2018-Feb-23 15:30N 35°30' E 139°43'0 0.0
2018-Feb-23 15:00N 35°30' E 139°43'0 0.0
2018-Feb-23 14:30N 35°30' E 139°43'0 0.0
2018-Feb-23 14:00N 35°30' E 139°43'0 0.0
2018-Feb-23 13:30N 35°30' E 139°43'0 0.0
2018-Feb-23 13:00N 35°30' E 139°43'0 0.0
2018-Feb-23 12:30N 35°30' E 139°43'0 0.0
2018-Feb-23 12:00N 35°30' E 139°43'0 0.0
2018-Feb-23 11:30N 35°30' E 139°43'0 0.0
2018-Feb-23 11:00N 35°30' E 139°43'0 0.0
2018-Feb-23 10:30N 35°30' E 139°43'0 0.0
2018-Feb-23 09:54N 35°30' E 139°43'0 0.0
2018-Feb-23 09:30N 35°30' E 139°43'0 0.0
2018-Feb-23 08:48N 35°30' E 139°43'0 0.0
2018-Feb-23 08:30N 35°30' E 139°43'0 0.0
2018-Feb-23 08:00N 35°30' E 139°43'0 0.0
2018-Feb-23 07:26N 35°30' E 139°43'0 0.0
2018-Feb-23 06:59N 35°30' E 139°43'0 0.0
2018-Feb-23 06:29N 35°30' E 139°43'0 0.0
2018-Feb-23 05:56N 35°30' E 139°43'0 0.0
2018-Feb-23 05:29N 35°30' E 139°43'0 0.0
2018-Feb-23 04:56N 35°30' E 139°43'0 0.0
2018-Feb-23 04:29N 35°30' E 139°43'0 0.0
2018-Feb-23 03:59N 35°30' E 139°43'0 0.0
2018-Feb-23 03:29N 35°30' E 139°43'0 0.0
2018-Feb-23 02:59N 35°30' E 139°43'0 0.0
2018-Feb-23 02:29N 35°30' E 139°43'0 0.0
2018-Feb-23 01:59N 35°30' E 139°43'0 0.0
2018-Feb-23 01:26N 35°30' E 139°43'0 0.0
2018-Feb-23 00:59N 35°30' E 139°43'0 0.0
2018-Feb-23 00:26N 35°30' E 139°43'0 0.0
2018-Feb-22 23:56N 35°30' E 139°43'0 0.0
2018-Feb-22 23:26N 35°30' E 139°43'0 0.0
2018-Feb-22 22:56N 35°30' E 139°43'0 0.0
2018-Feb-22 22:29N 35°30' E 139°43'0 0.0
2018-Feb-22 21:59N 35°30' E 139°43'0 0.0
2018-Feb-22 21:29N 35°30' E 139°43'0 0.0
2018-Feb-22 20:59N 35°30' E 139°43'0 0.0
2018-Feb-22 20:29N 35°30' E 139°43'0 0.0
2018-Feb-22 19:59N 35°30' E 139°43'0 0.0
2018-Feb-22 19:29N 35°30' E 139°43'0 0.0
2018-Feb-22 18:59N 35°30' E 139°43'0 0.0
2018-Feb-22 18:29N 35°30' E 139°43'0 0.0
2018-Feb-22 17:59N 35°30' E 139°43'0 0.0
2018-Feb-22 17:29N 35°30' E 139°43'0 0.0
2018-Feb-22 16:59N 35°30' E 139°43'0 0.0
2018-Feb-22 16:29N 35°30' E 139°43'0 0.0
2018-Feb-22 15:59N 35°30' E 139°43'0 0.0
2018-Feb-22 15:29N 35°30' E 139°43'0 0.0
2018-Feb-22 14:59N 35°30' E 139°43'0 0.0
2018-Feb-22 14:29N 35°30' E 139°43'0 0.0
2018-Feb-22 13:59N 35°30' E 139°43'0 0.0
2018-Feb-22 13:29N 35°30' E 139°43'0 0.0
2018-Feb-22 12:59N 35°30' E 139°43'0 0.0
2018-Feb-22 12:29N 35°30' E 139°43'0 0.0
2018-Feb-22 11:59N 35°30' E 139°43'0 0.0
2018-Feb-22 11:29N 35°30' E 139°43'0 0.0
2018-Feb-22 10:59N 35°30' E 139°43'0 0.0
2018-Feb-22 10:29N 35°30' E 139°43'0 0.0
2018-Feb-22 09:59N 35°30' E 139°43'0 0.0
2018-Feb-22 09:29N 35°30' E 139°43'0 0.0
2018-Feb-22 08:56N 35°30' E 139°43'0 0.0
2018-Feb-22 08:29N 35°30' E 139°43'0 0.0
2018-Feb-22 07:59N 35°30' E 139°43'0 0.0
2018-Feb-22 07:30N 35°30' E 139°43'0 0.0
2018-Feb-22 07:00N 35°30' E 139°43'0 0.0
2018-Feb-22 06:30N 35°30' E 139°43'0 0.0
2018-Feb-22 06:00N 35°30' E 139°43'0 0.0
2018-Feb-22 05:30N 35°30' E 139°43'0 0.0
2018-Feb-22 05:00N 35°30' E 139°43'1 1.8
2018-Feb-22 04:30N 35°29' E 139°43'3 5.3
2018-Feb-22 04:00N 35°27' E 139°43'4 7.5
2018-Feb-22 03:30N 35°24' E 139°46'5 9.5
2018-Feb-22 03:00N 35°19' E 139°44'5 9.6
2018-Feb-22 02:30N 35°15' E 139°47'5 9.7
2018-Feb-22 02:00N 35°10' E 139°46'510.4
2018-Feb-22 01:30N 35°05' E 139°45'16 6.0
2018-Feb-21 22:48N 34°56' E 140°02'410.5
2018-Feb-21 22:25N 34°58' E 140°06'39310.2
2018-Feb-20 07:45N 41°26' E 141°30'612.2
2018-Feb-20 07:16N 41°29' E 141°24'312.0
2018-Feb-20 06:59N 41°31' E 141°19'510.5
2018-Feb-20 06:30N 41°36' E 141°17'611.2
2018-Feb-20 05:59N 41°41' E 141°17'510.9
2018-Feb-20 05:30N 41°47' E 141°17'  
2018-Feb-14 23:44N 41°51' E 141°18'4 8.3
2018-Feb-14 23:18N 41°48' E 141°18'2 8.2
2018-Feb-14 23:00N 41°45' E 141°19'4 8.3
2018-Feb-14 22:30N 41°42' E 141°22'4 8.2
2018-Feb-14 21:59N 41°39' E 141°25'4 8.3
2018-Feb-14 21:27N 41°34' E 141°27'4 6.8
2018-Feb-14 20:56N 41°31' E 141°29'3 6.2
2018-Feb-14 20:25N 41°28' E 141°30'  
Track history (hours):
 
Tides and Currents Weather Stations Pressure Air Temp Water Temp Dewpoint Dewpoint Depression Visibility Wind Speed Wind Dir Waves Ship Positions

Hayakitamaru

Last reported at 2018-Feb-24 09:47 UTC. Time now 2018-Feb-24 10:06 UTC.
Position N 34°56' E 140°03'.

Length 74 m; draft 3.8 m.

Type: Cargo ship. MMSI: 431800289.

Date/timePositionNaut miles runAvg speedWind from/ knotsBaromVisibWave heightAir tempDewpointWater temp
2018-Feb-24 09:47N 34°56' E 140°03'1010.7
2018-Feb-24 08:49N 34°53' E 139°51'10 8.6
2018-Feb-24 07:39N 35°01' E 139°44'2 9.3
2018-Feb-24 07:29N 35°03' E 139°45'5 9.6
2018-Feb-24 06:59N 35°08' E 139°45'510.0
2018-Feb-24 06:30N 35°12' E 139°46'510.5
2018-Feb-24 06:00N 35°18' E 139°45'510.3
2018-Feb-24 05:30N 35°22' E 139°42'5 9.6
2018-Feb-24 05:00N 35°27' E 139°43'3 5.8
2018-Feb-24 04:30N 35°30' E 139°43'0 0.7
2018-Feb-24 04:00N 35°30' E 139°43'0 0.0
2018-Feb-24 03:30N 35°30' E 139°43'0 0.0
2018-Feb-24 03:00N 35°30' E 139°43'0 0.0
2018-Feb-24 02:30N 35°30' E 139°43'0 0.0
2018-Feb-24 02:00N 35°30' E 139°43'0 0.0
2018-Feb-24 01:30N 35°30' E 139°43'0 0.0
2018-Feb-24 01:00N 35°30' E 139°43'0 0.0
2018-Feb-24 00:30N 35°30' E 139°43'0 0.0
2018-Feb-24 00:00N 35°30' E 139°43'0 0.0
2018-Feb-23 23:30N 35°30' E 139°43'0 0.0
2018-Feb-23 23:00N 35°30' E 139°43'0 0.0
2018-Feb-23 22:30N 35°30' E 139°43'0 0.0
2018-Feb-23 22:00N 35°30' E 139°43'0 0.0
2018-Feb-23 21:30N 35°30' E 139°43'0 0.0
2018-Feb-23 21:00N 35°30' E 139°43'0 0.0
2018-Feb-23 20:30N 35°30' E 139°43'0 0.0
2018-Feb-23 20:00N 35°30' E 139°43'0 0.0
2018-Feb-23 19:30N 35°30' E 139°43'0 0.0
2018-Feb-23 19:00N 35°30' E 139°43'0 0.0
2018-Feb-23 18:30N 35°30' E 139°43'0 0.0
2018-Feb-23 18:00N 35°30' E 139°43'0 0.0
2018-Feb-23 17:30N 35°30' E 139°43'0 0.0
2018-Feb-23 17:00N 35°30' E 139°43'0 0.0
2018-Feb-23 16:30N 35°30' E 139°43'0 0.0
2018-Feb-23 16:00N 35°30' E 139°43'0 0.0
2018-Feb-23 15:30N 35°30' E 139°43'0 0.0
2018-Feb-23 15:00N 35°30' E 139°43'0 0.0
2018-Feb-23 14:30N 35°30' E 139°43'0 0.0
2018-Feb-23 14:00N 35°30' E 139°43'0 0.0
2018-Feb-23 13:30N 35°30' E 139°43'0 0.0
2018-Feb-23 13:00N 35°30' E 139°43'0 0.0
2018-Feb-23 12:30N 35°30' E 139°43'0 0.0
2018-Feb-23 12:00N 35°30' E 139°43'0 0.0
2018-Feb-23 11:30N 35°30' E 139°43'0 0.0
2018-Feb-23 11:00N 35°30' E 139°43'0 0.0
2018-Feb-23 10:30N 35°30' E 139°43'0 0.0
2018-Feb-23 09:54N 35°30' E 139°43'0 0.0
2018-Feb-23 09:30N 35°30' E 139°43'0 0.0
2018-Feb-23 08:48N 35°30' E 139°43'0 0.0
2018-Feb-23 08:30N 35°30' E 139°43'0 0.0
2018-Feb-23 08:00N 35°30' E 139°43'0 0.0
2018-Feb-23 07:26N 35°30' E 139°43'0 0.0
2018-Feb-23 06:59N 35°30' E 139°43'0 0.0
2018-Feb-23 06:29N 35°30' E 139°43'0 0.0
2018-Feb-23 05:56N 35°30' E 139°43'0 0.0
2018-Feb-23 05:29N 35°30' E 139°43'0 0.0
2018-Feb-23 04:56N 35°30' E 139°43'0 0.0
2018-Feb-23 04:29N 35°30' E 139°43'0 0.0
2018-Feb-23 03:59N 35°30' E 139°43'0 0.0
2018-Feb-23 03:29N 35°30' E 139°43'0 0.0
2018-Feb-23 02:59N 35°30' E 139°43'0 0.0
2018-Feb-23 02:29N 35°30' E 139°43'0 0.0
2018-Feb-23 01:59N 35°30' E 139°43'0 0.0
2018-Feb-23 01:26N 35°30' E 139°43'0 0.0
2018-Feb-23 00:59N 35°30' E 139°43'0 0.0
2018-Feb-23 00:26N 35°30' E 139°43'0 0.0
2018-Feb-22 23:56N 35°30' E 139°43'0 0.0
2018-Feb-22 23:26N 35°30' E 139°43'0 0.0
2018-Feb-22 22:56N 35°30' E 139°43'0 0.0
2018-Feb-22 22:29N 35°30' E 139°43'0 0.0
2018-Feb-22 21:59N 35°30' E 139°43'0 0.0
2018-Feb-22 21:29N 35°30' E 139°43'0 0.0
2018-Feb-22 20:59N 35°30' E 139°43'0 0.0
2018-Feb-22 20:29N 35°30' E 139°43'0 0.0
2018-Feb-22 19:59N 35°30' E 139°43'0 0.0
2018-Feb-22 19:29N 35°30' E 139°43'0 0.0
2018-Feb-22 18:59N 35°30' E 139°43'0 0.0
2018-Feb-22 18:29N 35°30' E 139°43'0 0.0
2018-Feb-22 17:59N 35°30' E 139°43'0 0.0
2018-Feb-22 17:29N 35°30' E 139°43'0 0.0
2018-Feb-22 16:59N 35°30' E 139°43'0 0.0
2018-Feb-22 16:29N 35°30' E 139°43'0 0.0
2018-Feb-22 15:59N 35°30' E 139°43'0 0.0
2018-Feb-22 15:29N 35°30' E 139°43'0 0.0
2018-Feb-22 14:59N 35°30' E 139°43'0 0.0
2018-Feb-22 14:29N 35°30' E 139°43'0 0.0
2018-Feb-22 13:59N 35°30' E 139°43'0 0.0
2018-Feb-22 13:29N 35°30' E 139°43'0 0.0
2018-Feb-22 12:59N 35°30' E 139°43'0 0.0
2018-Feb-22 12:29N 35°30' E 139°43'0 0.0
2018-Feb-22 11:59N 35°30' E 139°43'0 0.0
2018-Feb-22 11:29N 35°30' E 139°43'0 0.0
2018-Feb-22 10:59N 35°30' E 139°43'0 0.0
2018-Feb-22 10:29N 35°30' E 139°43'0 0.0
2018-Feb-22 09:59N 35°30' E 139°43'0 0.0
2018-Feb-22 09:29N 35°30' E 139°43'0 0.0
2018-Feb-22 08:56N 35°30' E 139°43'0 0.0
2018-Feb-22 08:29N 35°30' E 139°43'0 0.0
2018-Feb-22 07:59N 35°30' E 139°43'0 0.0
2018-Feb-22 07:30N 35°30' E 139°43'0 0.0
2018-Feb-22 07:00N 35°30' E 139°43'0 0.0
2018-Feb-22 06:30N 35°30' E 139°43'0 0.0
2018-Feb-22 06:00N 35°30' E 139°43'0 0.0
2018-Feb-22 05:30N 35°30' E 139°43'0 0.0
2018-Feb-22 05:00N 35°30' E 139°43'1 1.8
2018-Feb-22 04:30N 35°29' E 139°43'3 5.3
2018-Feb-22 04:00N 35°27' E 139°43'4 7.5
2018-Feb-22 03:30N 35°24' E 139°46'5 9.5
2018-Feb-22 03:00N 35°19' E 139°44'5 9.6
2018-Feb-22 02:30N 35°15' E 139°47'5 9.7
2018-Feb-22 02:00N 35°10' E 139°46'510.4
2018-Feb-22 01:30N 35°05' E 139°45'16 6.0
2018-Feb-21 22:48N 34°56' E 140°02'410.5
2018-Feb-21 22:25N 34°58' E 140°06'39310.2
2018-Feb-20 07:45N 41°26' E 141°30'612.2
2018-Feb-20 07:16N 41°29' E 141°24'312.0
2018-Feb-20 06:59N 41°31' E 141°19'510.5
2018-Feb-20 06:30N 41°36' E 141°17'611.2
2018-Feb-20 05:59N 41°41' E 141°17'510.9
2018-Feb-20 05:30N 41°47' E 141°17'  
2018-Feb-14 23:44N 41°51' E 141°18'4 8.3
2018-Feb-14 23:18N 41°48' E 141°18'2 8.2
2018-Feb-14 23:00N 41°45' E 141°19'4 8.3
2018-Feb-14 22:30N 41°42' E 141°22'4 8.2
2018-Feb-14 21:59N 41°39' E 141°25'4 8.3
2018-Feb-14 21:27N 41°34' E 141°27'4 6.8
2018-Feb-14 20:56N 41°31' E 141°29'3 6.2
2018-Feb-14 20:25N 41°28' E 141°30'  

Dump ship's entire track history